• Join FlightAware (Why Join?)
  • Login
  • US Flag 
02:03PM EDT


 

Airport Tracker/Info


-or-


 

Live Flight TrackerFlight Track Log ✈ UCA596 ✈ 28-Oct-2013 ✈ KIAD - KBGM

Flight Track Log - Related Links

Times and Time Zones

All times are in EDT time to prevent confusion due to time zone crossing. See the UCA596 flight status page for this flight to view local times or setup timezone preferences in your user account.

Time Position Orientation Groundspeed Altitude Reporting Facility
EDT Latitude Longitude Course Direction KTS MPH feet Rate Location/Type
01:36PM 38.9667 -77.4833 351° North 148 170 1,800  Level Potomac TRACON
01:38PM 39.0858 -77.5064 351° North 185 213 3,900 1,200 Climbing Washington Center
01:39PM 39.1461 -77.5106 357° North 192 221 5,800 1,620 Climbing Washington Center
01:40PM 39.2003 -77.5147 357° North 192 221 7,100 1,260 Climbing Washington Center
01:41PM 39.2544 -77.5189 357° North 197 227 8,400 1,200 Climbing Washington Center
01:42PM 39.3106 -77.5231 357° North 197 227 9,600 1,020 Climbing Washington Center
01:43PM 39.3586 -77.5214 North 197 227 10,500 960 Climbing Washington Center
01:44PM 39.4150 -77.5097 North 197 227 11,600 1,140 Climbing Washington Center
01:45PM 39.4758 -77.4950 11° North 202 232 12,800 1,140 Climbing Washington Center
01:47PM 39.6047 -77.4619 11° North 206 237 15,200 1,080 Climbing New York Center
01:48PM 39.6594 -77.4511 North 206 237 16,200 1,080 Climbing New York Center
01:49PM 39.7242 -77.4517 360° North 206 237 17,400 840 Climbing New York Center
01:50PM 39.7764 -77.4514 360° North 211 243 17,900 720 Climbing New York Center
01:51PM 39.8408 -77.4519 360° North 211 243 18,900 540 Climbing New York Center
01:52PM 39.8972 -77.4519 360° North 223 257 19,000  Climbing New York Center
01:53PM 39.9744 -77.4486 North 243 280 19,000  Level New York Center
01:54PM 40.0433 -77.4497 359° North 257 296 19,000  Level New York Center
01:55PM 40.1269 -77.4442 North 274 315 19,000  Level New York Center
01:56PM 40.1958 -77.4453 359° North 274 315 19,000  Level New York Center
01:57PM 40.2792 -77.4453 360° North 274 315 19,000  Level New York Center
01:58PM 40.3481 -77.4436 North 274 315 19,000  Level New York Center
01:59PM 40.4314 -77.4436 360° North 274 315 19,000  Level New York Center
02:00PM 40.4983 -77.4417 North 274 315 19,000 -480 Level New York Center
02:01PM 40.5858 -77.4419 360° North 274 315 18,100 -840 Descending New York Center
02:02PM 40.6611 -77.4383 North 279 321 17,400 -600 Descending New York Center
02:03PM 40.7358 -77.4047 19° North 286 329 17,000 -240 Descending New York Center
02:04PM 40.8058 -77.3456 33° Northeast 286 329 17,000  Level New York Center
02:05PM 40.8717 -77.2861 34° Northeast 286 329 17,000  Level New York Center
02:06PM 40.9394 -77.2294 32° Northeast 286 329 17,000  Level New York Center
02:07PM 41.0072 -77.1697 34° Northeast 292 336 17,000  Level New York Center
02:08PM 41.0750 -77.1100 34° Northeast 292 336 17,000  Level New York Center
02:09PM 41.1428 -77.0503 34° Northeast 292 336 17,000  Level New York Center
02:10PM 41.2106 -76.9903 34° Northeast 292 336 17,000  Level New York Center
02:11PM 41.2783 -76.9303 34° Northeast 292 336 17,000  Level New York Center
02:12PM 41.3461 -76.8700 34° Northeast 292 336 17,000  Level New York Center
02:13PM 41.4136 -76.8097 34° Northeast 292 336 17,000  Level New York Center
02:14PM 41.4811 -76.7522 33° Northeast 292 336 17,000 -240 Level New York Center
02:15PM 41.5533 -76.6839 35° Northeast 298 343 16,600 -660 Descending New York Center
02:16PM 41.6275 -76.6181 34° Northeast 304 350 15,700 -960 Descending New York Center
02:17PM 41.6994 -76.5522 34° Northeast 310 357 14,700 -1,020 Descending New York Center
02:18PM 41.7731 -76.4892 33° Northeast 310 357 13,700 -1,020 Descending New York Center
02:19PM 41.8450 -76.4256 33° Northeast 315 362 12,700 -1,200 Descending New York Center
02:20PM 41.9064 -76.3583 39° Northeast 299 344 11,400 -1,620 Descending New York Center
02:21PM 41.9639 -76.2853 43° Northeast 285 328 9,500 -1,920 Descending New York Center
02:22PM 42.0214 -76.2147 42° Northeast 273 314 7,600 -2,040 Descending New York Center
02:23PM 42.0722 -76.1517 43° Northeast 261 300 5,500 -1,920 Descending New York Center
02:24PM 42.1044 -76.0817 58° Northeast 234 269 3,800 -1,320 Descending New York Center
02:25PM 42.1322 -76.0197 59° Northeast 206 237 2,900 -600 Descending New York Center
02:26PM 42.1550 -75.9711 58° Northeast 173 199 2,600 -540 Descending New York Center
02:27PM 42.1867 -75.9622 12° North 124 143 1,900 3,180 Descending New York Center
02:28PM 42.2131 -75.9336 39° Northeast 124 143 9,000 3,540 Climbing New York Center
02:29PM 42.2389 -75.9078 37° Northeast 124 143 9,000  Level New York Center
02:30PM 42.2672 -75.8819 34° Northeast 124 143 9,000  Level New York Center
02:32PM 42.2148 -75.9691 North  Level Estimated